createdAt,value
2022-08-08T00:04:16.234Z,2.08
2022-08-08T00:14:56.923Z,1.92
2022-08-08T00:25:03.805Z,2.05
2022-08-08T00:35:21.119Z,1.87
2022-08-08T00:45:38.935Z,2.05
2022-08-08T00:56:33.909Z,2.00
2022-08-08T01:07:13.903Z,1.83
2022-08-08T01:17:58.125Z,2.17
2022-08-08T01:28:18.118Z,1.90
2022-08-08T01:38:39.976Z,1.60
2022-08-08T01:48:58.746Z,2.40
2022-08-08T01:59:38.271Z,1.80
2022-08-08T02:10:36.950Z,2.20
2022-08-08T02:21:13.271Z,2.13
2022-08-08T02:31:58.202Z,2.03
2022-08-08T02:42:18.164Z,2.20
2022-08-08T02:52:40.592Z,2.07
2022-08-08T03:03:05.682Z,2.03
2022-08-08T03:15:54.368Z,1.97
2022-08-08T03:23:59.083Z,2.17
2022-08-08T03:34:02.487Z,1.53
2022-08-08T03:44:07.003Z,1.60
2022-08-08T03:54:15.718Z,1.30
2022-08-08T04:04:41.759Z,1.43
2022-08-08T04:14:45.321Z,1.30
2022-08-08T04:24:50.079Z,1.43
2022-08-08T04:34:58.477Z,1.43
2022-08-08T04:45:01.650Z,1.70
2022-08-08T04:55:06.583Z,1.63
2022-08-08T05:05:19.920Z,1.67
2022-08-08T05:15:23.616Z,1.10
2022-08-08T05:25:41.231Z,1.20
2022-08-08T05:35:45.788Z,1.50
2022-08-08T05:45:53.013Z,1.40
2022-08-08T05:56:11.459Z,1.60
2022-08-08T06:06:23.405Z,1.50
2022-08-08T06:16:42.522Z,1.50
2022-08-08T06:26:58.239Z,1.40
2022-08-08T06:37:25.195Z,1.27
2022-08-08T06:47:31.581Z,1.17
2022-08-08T06:57:53.635Z,1.20
2022-08-08T07:08:10.816Z,2.00
2022-08-08T07:18:36.663Z,2.03
2022-08-08T07:28:44.852Z,1.52
2022-08-08T07:38:53.309Z,1.20
2022-08-08T07:48:58.437Z,1.48
2022-08-08T07:59:05.934Z,1.35
2022-08-08T08:09:27.466Z,1.77
2022-08-08T08:19:45.502Z,1.77
2022-08-08T08:29:51.874Z,1.80
2022-08-08T08:40:02.907Z,1.60
2022-08-08T08:50:10.688Z,1.92
2022-08-08T09:11:17.643Z,1.40
2022-08-08T09:21:56.298Z,1.10
2022-08-08T09:32:06.428Z,1.33
2022-08-08T09:42:25.771Z,1.23
2022-08-08T09:52:55.950Z,1.62
2022-08-08T10:02:57.900Z,1.20
2022-08-08T10:13:13.851Z,1.55
2022-08-08T10:23:29.286Z,1.33
2022-08-08T10:34:19.906Z,1.33
2022-08-08T10:44:27.724Z,1.42
2022-08-08T10:54:38.854Z,1.30
2022-08-08T11:04:54.201Z,1.30
2022-08-08T11:15:08.799Z,1.37
2022-08-08T11:25:21.166Z,1.20
2022-08-08T11:35:45.435Z,1.40
2022-08-08T11:46:13.231Z,1.30
2022-08-08T11:56:24.617Z,1.30
2022-08-08T12:06:29.189Z,1.30
2022-08-08T12:16:39.607Z,1.27
2022-08-08T12:26:57.070Z,1.60
2022-08-08T12:37:08.474Z,1.50
2022-08-08T12:47:13.127Z,1.55
2022-08-08T12:57:18.431Z,1.35
2022-08-08T13:08:03.830Z,1.30
2022-08-08T13:18:07.873Z,1.40
2022-08-08T13:28:10.060Z,1.75
2022-08-08T13:38:13.643Z,1.40
2022-08-08T13:48:25.826Z,1.20
2022-08-08T13:58:30.676Z,1.30
2022-08-08T14:08:35.001Z,1.30
2022-08-08T14:18:53.775Z,1.42
2022-08-08T14:29:05.782Z,1.17
2022-08-08T14:39:20.201Z,1.15
2022-08-08T14:50:06.559Z,1.60
2022-08-08T15:00:00.741Z,1.20
2022-08-08T15:10:04.068Z,1.40
2022-08-08T15:20:12.599Z,1.65
2022-08-08T15:30:19.819Z,1.17
2022-08-08T15:40:22.558Z,1.30
2022-08-08T15:50:53.059Z,1.00
2022-08-08T16:00:56.371Z,1.25
2022-08-08T16:13:12.268Z,1.00
2022-08-08T16:21:26.936Z,1.02
2022-08-08T16:31:30.433Z,1.10
2022-08-08T16:41:35.157Z,0.88
2022-08-08T16:55:02.069Z,1.02
2022-08-08T17:02:05.305Z,1.37
2022-08-08T17:12:21.623Z,0.98
2022-08-08T17:22:39.131Z,1.17
2022-08-08T17:33:43.971Z,1.23
2022-08-08T17:43:08.329Z,1.10
2022-08-08T17:53:15.397Z,1.30
2022-08-08T18:03:18.708Z,1.15
2022-08-08T18:13:25.443Z,0.90
2022-08-08T18:23:29.698Z,1.00
2022-08-08T18:34:12.451Z,1.00
2022-08-08T18:43:56.469Z,1.10
2022-08-08T19:04:12.630Z,0.90
2022-08-08T19:14:20.403Z,1.08
2022-08-08T19:24:41.923Z,1.05
2022-08-08T19:34:51.367Z,1.10
2022-08-08T19:44:55.086Z,1.27
2022-08-08T19:55:13.170Z,1.35
2022-08-08T20:06:14.895Z,1.00
2022-08-08T20:15:59.981Z,1.67
2022-08-08T20:26:04.381Z,1.48
2022-08-08T20:36:08.826Z,1.48
2022-08-08T20:46:13.660Z,1.85
2022-08-08T20:56:17.126Z,1.60
2022-08-08T21:16:44.208Z,1.77
2022-08-08T21:26:47.092Z,1.40
2022-08-08T21:36:54.939Z,1.40
2022-08-08T21:48:04.030Z,1.30
2022-08-08T21:57:28.804Z,1.37
2022-08-08T22:07:48.206Z,1.80
2022-08-08T22:17:52.386Z,1.60
2022-08-08T22:28:04.718Z,1.30
2022-08-08T22:38:22.438Z,1.42
2022-08-08T22:48:25.042Z,1.42
2022-08-08T22:58:28.613Z,1.87
2022-08-08T23:08:35.866Z,1.87
2022-08-08T23:18:47.312Z,1.42
2022-08-08T23:28:52.096Z,1.50
2022-08-08T23:38:54.432Z,1.90
2022-08-08T23:49:00.668Z,1.85
2022-08-08T23:59:17.186Z,1.80
